createdAt,value
2017-07-11T00:00:47.791Z,0
2017-07-11T00:01:47.806Z,0
2017-07-11T00:02:48.094Z,0
2017-07-11T00:03:47.808Z,0
2017-07-11T00:04:48.087Z,0
2017-07-11T00:05:47.804Z,0
2017-07-11T00:06:48.114Z,0
2017-07-11T00:07:47.470Z,0
2017-07-11T00:08:47.782Z,0
2017-07-11T00:09:48.097Z,0
2017-07-11T00:10:48.092Z,0
2017-07-11T00:11:48.090Z,0
2017-07-11T00:12:47.777Z,0
2017-07-11T00:13:48.068Z,0
2017-07-11T00:14:48.081Z,0
2017-07-11T00:15:47.754Z,0
2017-07-11T00:16:47.766Z,0
2017-07-11T00:17:48.059Z,0
2017-07-11T00:18:47.759Z,0
2017-07-11T00:19:48.061Z,0
2017-07-11T00:20:47.755Z,0
2017-07-11T00:21:48.060Z,0
2017-07-11T00:22:47.740Z,0
2017-07-11T00:23:47.742Z,0
2017-07-11T00:24:48.052Z,0
2017-07-11T00:25:48.054Z,0
2017-07-11T00:26:47.730Z,0
2017-07-11T00:27:48.038Z,0
2017-07-11T00:28:48.060Z,0
2017-07-11T00:29:47.724Z,0
2017-07-11T00:30:47.712Z,0
2017-07-11T00:31:48.032Z,0
2017-07-11T00:32:47.726Z,0
2017-07-11T00:33:48.024Z,0
2017-07-11T00:34:47.711Z,0
2017-07-11T00:35:48.036Z,0
2017-07-11T00:36:48.009Z,0
2017-07-11T00:37:47.714Z,0
2017-07-11T00:38:47.381Z,0
2017-07-11T00:39:47.689Z,0
2017-07-11T00:40:47.991Z,0
2017-07-11T00:41:47.673Z,0
2017-07-11T00:42:47.681Z,0
2017-07-11T00:43:47.686Z,0
2017-07-11T00:44:47.695Z,0
2017-07-11T00:45:47.682Z,0
2017-07-11T00:46:47.678Z,0
2017-07-11T00:47:47.673Z,0
2017-07-11T00:48:47.983Z,0
2017-07-11T00:49:47.989Z,0
2017-07-11T00:50:47.650Z,0
2017-07-11T00:51:47.664Z,0
2017-07-11T00:52:47.953Z,0
2017-07-11T00:53:47.988Z,0
2017-07-11T00:54:47.964Z,0
2017-07-11T00:55:47.646Z,0
2017-07-11T00:56:47.929Z,0
2017-07-11T00:57:47.934Z,0
2017-07-11T00:58:47.960Z,0
2017-07-11T00:59:47.963Z,0
2017-07-11T01:00:47.641Z,0
2017-07-11T01:01:47.928Z,0
2017-07-11T01:02:47.620Z,0
2017-07-11T01:03:47.915Z,0
2017-07-11T01:04:47.696Z,0
2017-07-11T01:05:47.286Z,0
2017-07-11T01:06:47.936Z,0
2017-07-11T01:07:47.921Z,0
2017-07-11T01:08:47.603Z,0
2017-07-11T01:09:47.915Z,0
2017-07-11T01:10:47.893Z,0
2017-07-11T01:11:47.896Z,0
2017-07-11T01:12:47.913Z,0
2017-07-11T01:13:47.894Z,0
2017-07-11T01:14:47.587Z,0
2017-07-11T01:15:47.580Z,0
2017-07-11T01:16:47.904Z,0
2017-07-11T01:17:47.568Z,0
2017-07-11T01:18:47.878Z,0
2017-07-11T01:19:47.862Z,0
2017-07-11T01:20:47.573Z,0
2017-07-11T01:21:47.242Z,0
2017-07-11T01:22:47.872Z,0
2017-07-11T01:23:47.854Z,0
2017-07-11T01:24:47.874Z,0
2017-07-11T01:25:47.856Z,0
2017-07-11T01:26:47.861Z,0
2017-07-11T01:27:47.528Z,0
2017-07-11T01:28:47.856Z,0
2017-07-11T01:29:47.533Z,0
2017-07-11T01:30:47.532Z,0
2017-07-11T01:31:47.533Z,0
2017-07-11T01:32:47.838Z,0
2017-07-11T01:33:47.843Z,0
2017-07-11T01:34:47.506Z,0
2017-07-11T01:35:47.520Z,0
2017-07-11T01:36:47.838Z,0
2017-07-11T01:37:47.836Z,0
2017-07-11T01:38:47.507Z,0
2017-07-11T01:39:47.501Z,0
2017-07-11T01:40:47.497Z,0
2017-07-11T01:41:47.803Z,0
2017-07-11T01:42:47.807Z,0
2017-07-11T01:43:47.856Z,0
2017-07-11T01:44:47.800Z,0
2017-07-11T01:45:47.480Z,0
2017-07-11T01:46:47.792Z,0
2017-07-11T01:47:47.769Z,0
2017-07-11T01:48:47.459Z,0
2017-07-11T01:49:47.481Z,0
2017-07-11T01:50:47.767Z,0
2017-07-11T01:51:46.829Z,0
2017-07-11T01:52:47.440Z,0
2017-07-11T01:53:47.779Z,0
2017-07-11T01:54:47.753Z,0
2017-07-11T01:55:47.771Z,0
2017-07-11T01:56:47.733Z,0
2017-07-11T01:57:47.762Z,0
2017-07-11T01:58:47.758Z,0
2017-07-11T01:59:47.753Z,0
2017-07-11T02:00:47.411Z,0
2017-07-11T02:01:47.100Z,0
2017-07-11T02:02:47.742Z,0
2017-07-11T02:03:47.779Z,0
2017-07-11T02:04:47.717Z,0
2017-07-11T02:05:47.734Z,0
2017-07-11T02:06:47.715Z,0
2017-07-11T02:07:47.736Z,0
2017-07-11T02:08:47.377Z,0
2017-07-11T02:09:47.406Z,0
2017-07-11T02:10:47.377Z,0
2017-07-11T02:11:47.701Z,0
2017-07-11T02:12:47.686Z,0
2017-07-11T02:13:47.702Z,0
2017-07-11T02:14:47.701Z,0
2017-07-11T02:15:47.713Z,0
2017-07-11T02:16:47.686Z,0
2017-07-11T02:17:47.691Z,0
2017-07-11T02:18:47.661Z,0
2017-07-11T02:19:47.040Z,0
2017-07-11T02:20:47.663Z,0
2017-07-11T02:21:47.359Z,0
2017-07-11T02:22:47.025Z,4
2017-07-11T02:23:47.676Z,4
2017-07-11T02:24:47.325Z,0
2017-07-11T02:25:47.653Z,4
2017-07-11T02:26:47.629Z,4
2017-07-11T02:27:47.666Z,8
2017-07-11T02:28:47.311Z,4
2017-07-11T02:29:47.330Z,8
2017-07-11T02:30:47.315Z,8
2017-07-11T02:31:47.312Z,12
2017-07-11T02:32:47.320Z,8
2017-07-11T02:33:47.305Z,12
2017-07-11T02:34:47.311Z,12
2017-07-11T02:35:47.608Z,16
2017-07-11T02:36:47.281Z,16
2017-07-11T02:37:47.619Z,16
2017-07-11T02:38:47.586Z,16
2017-07-11T02:39:47.604Z,20
2017-07-11T02:40:46.952Z,24
2017-07-11T02:41:47.611Z,28
2017-07-11T02:42:47.580Z,28
2017-07-11T02:43:47.594Z,28
2017-07-11T02:44:47.588Z,36
2017-07-11T02:45:47.273Z,40
2017-07-11T02:46:47.264Z,44
2017-07-11T02:47:47.578Z,52
2017-07-11T02:48:47.552Z,52
2017-07-11T02:49:47.549Z,52
2017-07-11T02:50:47.570Z,56
2017-07-11T02:51:47.571Z,56
2017-07-11T02:52:47.572Z,76
2017-07-11T02:53:47.223Z,84
2017-07-11T02:54:47.550Z,76
2017-07-11T02:55:47.558Z,80
2017-07-11T02:56:46.899Z,96
2017-07-11T02:57:47.230Z,116
2017-07-11T02:58:47.213Z,120
2017-07-11T02:59:47.542Z,112
2017-07-11T03:00:47.510Z,128
2017-07-11T03:01:47.535Z,136
2017-07-11T03:02:47.223Z,144
2017-07-11T03:03:47.533Z,140
2017-07-11T03:04:47.508Z,148
2017-07-11T03:05:46.866Z,160
2017-07-11T03:06:47.502Z,164
2017-07-11T03:07:47.189Z,160
2017-07-11T03:08:47.518Z,156
2017-07-11T03:09:47.503Z,164
2017-07-11T03:10:47.495Z,184
2017-07-11T03:11:47.465Z,208
2017-07-11T03:12:47.490Z,252
2017-07-11T03:13:47.160Z,264
2017-07-11T03:14:47.481Z,300
2017-07-11T03:15:47.147Z,352
2017-07-11T03:16:47.163Z,364
2017-07-11T03:17:47.460Z,448
2017-07-11T03:18:47.459Z,520
2017-07-11T03:19:47.129Z,472
2017-07-11T03:20:47.537Z,492
2017-07-11T03:21:47.438Z,668
2017-07-11T03:22:46.810Z,740
2017-07-11T03:23:47.133Z,800
2017-07-11T03:24:47.136Z,840
2017-07-11T03:25:47.418Z,804
2017-07-11T03:26:47.436Z,820
2017-07-11T03:27:47.411Z,812
2017-07-11T03:28:47.444Z,748
2017-07-11T03:29:47.087Z,632
2017-07-11T03:30:47.432Z,664
2017-07-11T03:31:47.097Z,1044
2017-07-11T03:32:47.426Z,1264
2017-07-11T03:33:47.079Z,1348
2017-07-11T03:34:47.085Z,1424
2017-07-11T03:35:47.401Z,1436
2017-07-11T03:36:47.406Z,1520
2017-07-11T03:37:47.397Z,1560
2017-07-11T03:38:47.381Z,1408
2017-07-11T03:39:47.369Z,1160
2017-07-11T03:40:47.041Z,1132
2017-07-11T03:41:47.078Z,1248
2017-07-11T03:42:47.366Z,1420
2017-07-11T03:43:47.070Z,1568
2017-07-11T03:44:47.374Z,1568
2017-07-11T03:45:47.059Z,1656
2017-07-11T03:46:46.724Z,1720
2017-07-11T03:47:47.034Z,1696
2017-07-11T03:48:47.049Z,1932
2017-07-11T03:49:47.030Z,2156
2017-07-11T03:50:47.017Z,2336
2017-07-11T03:51:47.034Z,2512
2017-07-11T03:52:47.396Z,2624
2017-07-11T03:53:47.344Z,2760
2017-07-11T03:54:47.332Z,2936
2017-07-11T03:55:47.010Z,3116
2017-07-11T03:56:47.311Z,3148
2017-07-11T03:57:47.331Z,3216
2017-07-11T03:58:47.310Z,3288
2017-07-11T03:59:47.307Z,3532
2017-07-11T04:00:47.014Z,3704
2017-07-11T04:01:47.301Z,3892
2017-07-11T04:02:46.999Z,4112
2017-07-11T04:03:46.675Z,4280
2017-07-11T04:04:46.998Z,4416
2017-07-11T04:05:46.966Z,4548
2017-07-11T04:06:47.033Z,4684
2017-07-11T04:07:47.266Z,4784
2017-07-11T04:08:47.294Z,4848
2017-07-11T04:09:47.297Z,4848
2017-07-11T04:10:47.263Z,4816
2017-07-11T04:11:46.946Z,4748
2017-07-11T04:12:47.285Z,4692
2017-07-11T04:13:47.253Z,4708
2017-07-11T04:14:46.946Z,4772
2017-07-11T04:15:47.244Z,4984
2017-07-11T04:16:47.262Z,5220
2017-07-11T04:17:46.931Z,5412
2017-07-11T04:18:47.259Z,5600
2017-07-11T04:19:47.249Z,5732
2017-07-11T04:20:47.251Z,5872
2017-07-11T04:21:46.912Z,6140
2017-07-11T04:22:46.596Z,6344
2017-07-11T04:23:46.917Z,6472
2017-07-11T04:24:46.919Z,6692
2017-07-11T04:25:47.241Z,6816
2017-07-11T04:26:47.213Z,7180
2017-07-11T04:27:46.585Z,7468
2017-07-11T04:28:46.901Z,7744
2017-07-11T04:29:47.216Z,8012
2017-07-11T04:30:47.215Z,8180
2017-07-11T04:31:47.226Z,8456
2017-07-11T04:32:47.189Z,8768
2017-07-11T04:33:47.216Z,8928
2017-07-11T04:34:46.875Z,9412
2017-07-11T04:35:47.195Z,9680
2017-07-11T04:36:47.185Z,10004
2017-07-11T04:37:46.934Z,10464
2017-07-11T04:38:47.188Z,10684
2017-07-11T04:39:47.173Z,10724
2017-07-11T04:40:46.881Z,10920
2017-07-11T04:41:47.202Z,11056
2017-07-11T04:42:46.862Z,11168
2017-07-11T04:43:47.155Z,11096
2017-07-11T04:44:46.841Z,11504
2017-07-11T04:45:46.862Z,11712
2017-07-11T04:46:47.159Z,11976
2017-07-11T04:47:47.188Z,12080
2017-07-11T04:48:46.522Z,12164
2017-07-11T04:49:47.182Z,12644
2017-07-11T04:50:46.833Z,13188
2017-07-11T04:51:47.161Z,14164
2017-07-11T04:52:47.144Z,14716
2017-07-11T04:53:46.840Z,15424
2017-07-11T04:54:47.146Z,16032
2017-07-11T04:55:47.146Z,16512
2017-07-11T04:56:46.814Z,15584
2017-07-11T04:57:47.127Z,16512
2017-07-11T04:58:46.510Z,16256
2017-07-11T04:59:47.141Z,16960
2017-07-11T05:00:47.154Z,16992
2017-07-11T05:01:47.120Z,15712
2017-07-11T05:02:47.126Z,13624
2017-07-11T05:03:46.822Z,13552
2017-07-11T05:04:47.131Z,13536
2017-07-11T05:05:46.819Z,13628
2017-07-11T05:06:47.131Z,14168
2017-07-11T05:07:47.144Z,14736
2017-07-11T05:08:47.109Z,12452
2017-07-11T05:09:47.143Z,13276
2017-07-11T05:10:46.501Z,10836
2017-07-11T05:11:47.132Z,10084
2017-07-11T05:12:47.144Z,10372
2017-07-11T05:13:46.807Z,11552
2017-07-11T05:14:46.826Z,12112
2017-07-11T05:15:47.144Z,11972
2017-07-11T05:16:46.819Z,11932
2017-07-11T05:17:47.125Z,12348
2017-07-11T05:18:47.122Z,11932
2017-07-11T05:19:47.136Z,12056
2017-07-11T05:20:47.141Z,11808
2017-07-11T05:21:47.118Z,11944
2017-07-11T05:22:46.812Z,12160
2017-07-11T05:23:47.125Z,12144
2017-07-11T05:24:47.147Z,12284
2017-07-11T05:25:47.135Z,12136
2017-07-11T05:26:47.145Z,11760
2017-07-11T05:27:47.133Z,11300
2017-07-11T05:28:46.829Z,11324
2017-07-11T05:29:46.809Z,11180
2017-07-11T05:30:47.134Z,11344
2017-07-11T05:31:46.835Z,11568
2017-07-11T05:32:46.505Z,11736
2017-07-11T05:33:47.129Z,11608
2017-07-11T05:34:47.126Z,11336
2017-07-11T05:35:47.126Z,11476
2017-07-11T05:36:47.135Z,11564
2017-07-11T05:37:47.169Z,11112
2017-07-11T05:38:47.144Z,11588
2017-07-11T05:39:47.120Z,11548
2017-07-11T05:40:47.141Z,11408
2017-07-11T05:41:46.787Z,11328
2017-07-11T05:42:47.124Z,11148
2017-07-11T05:43:46.820Z,11116
2017-07-11T05:44:46.817Z,11168
2017-07-11T05:45:46.512Z,11344
2017-07-11T05:46:46.495Z,11568
2017-07-11T05:47:47.127Z,11772
2017-07-11T05:48:47.128Z,11852
2017-07-11T05:49:47.134Z,11844
2017-07-11T05:50:47.135Z,11788
2017-07-11T05:51:47.152Z,11716
2017-07-11T05:52:47.112Z,11592
2017-07-11T05:53:46.820Z,11532
2017-07-11T05:54:46.799Z,11540
2017-07-11T05:55:47.125Z,11600
2017-07-11T05:56:47.146Z,11792
2017-07-11T05:57:46.802Z,12000
2017-07-11T05:58:46.485Z,12264
2017-07-11T05:59:47.131Z,12532
2017-07-11T06:00:46.821Z,12732
2017-07-11T06:01:47.134Z,12836
2017-07-11T06:02:46.805Z,12624
2017-07-11T06:03:46.486Z,12736
2017-07-11T06:04:46.807Z,12796
2017-07-11T06:05:46.809Z,12896
2017-07-11T06:06:47.133Z,12992
2017-07-11T06:07:47.141Z,12728
2017-07-11T06:08:46.795Z,12272
2017-07-11T06:09:47.120Z,12624
2017-07-11T06:10:47.128Z,13420
2017-07-11T06:11:47.132Z,13892
2017-07-11T06:12:47.097Z,14004
2017-07-11T06:13:46.815Z,14200
2017-07-11T06:14:47.128Z,14112
2017-07-11T06:15:47.135Z,13684
2017-07-11T06:16:47.111Z,13304
2017-07-11T06:17:46.789Z,13428
2017-07-11T06:18:47.125Z,13676
2017-07-11T06:19:46.816Z,13752
2017-07-11T06:20:47.111Z,13800
2017-07-11T06:21:47.135Z,13908
2017-07-11T06:22:46.490Z,14220
2017-07-11T06:23:46.810Z,14536
2017-07-11T06:24:46.787Z,14784
2017-07-11T06:25:47.132Z,15008
2017-07-11T06:26:47.114Z,15208
2017-07-11T06:27:47.134Z,15640
2017-07-11T06:28:47.106Z,16128
2017-07-11T06:29:47.141Z,16320
2017-07-11T06:30:47.131Z,16608
2017-07-11T06:31:46.808Z,16960
2017-07-11T06:32:47.119Z,17376
2017-07-11T06:33:47.102Z,18048
2017-07-11T06:34:47.118Z,18528
2017-07-11T06:35:47.128Z,18880
2017-07-11T06:36:47.137Z,19200
2017-07-11T06:37:46.795Z,19520
2017-07-11T06:38:47.128Z,19840
2017-07-11T06:39:46.810Z,20224
2017-07-11T06:40:46.812Z,20512
2017-07-11T06:41:46.493Z,20704
2017-07-11T06:42:46.820Z,20896
2017-07-11T06:43:47.128Z,22080
2017-07-11T06:44:47.136Z,23104
2017-07-11T06:45:46.795Z,24384
2017-07-11T06:46:47.136Z,23840
2017-07-11T06:47:47.133Z,25024
2017-07-11T06:48:46.802Z,23744
2017-07-11T06:49:46.492Z,26048
2017-07-11T06:50:46.826Z,25888
2017-07-11T06:51:47.139Z,27456
2017-07-11T06:52:47.144Z,32640
2017-07-11T06:53:47.164Z,26752
2017-07-11T06:54:47.143Z,29312
2017-07-11T06:55:47.132Z,31840
2017-07-11T06:56:47.152Z,36352
2017-07-11T06:57:47.143Z,35616
2017-07-11T06:58:46.840Z,36352
2017-07-11T06:59:47.152Z,34784
2017-07-11T07:00:46.851Z,28288
2017-07-11T07:01:46.835Z,32896
2017-07-11T07:02:47.155Z,33152
2017-07-11T07:03:47.168Z,36224
2017-07-11T07:04:47.182Z,35616
2017-07-11T07:05:46.538Z,44288
2017-07-11T07:06:46.862Z,42112
2017-07-11T07:07:47.179Z,40384
2017-07-11T07:08:47.170Z,36224
2017-07-11T07:09:46.561Z,37664
2017-07-11T07:10:47.186Z,38688
2017-07-11T07:11:46.879Z,40928
2017-07-11T07:12:47.216Z,42560
2017-07-11T07:13:46.887Z,45824
2017-07-11T07:14:46.910Z,51552
2017-07-11T07:15:46.582Z,51776
2017-07-11T07:16:47.238Z,62400
2017-07-11T07:17:46.906Z,64960
2017-07-11T07:18:47.226Z,64128
2017-07-11T07:19:47.238Z,48640
2017-07-11T07:20:47.262Z,38016
2017-07-11T07:21:46.626Z,53152
2017-07-11T07:22:46.934Z,40864
2017-07-11T07:23:47.262Z,36256
2017-07-11T07:24:47.280Z,35488
2017-07-11T07:25:47.263Z,32992
2017-07-11T07:26:47.278Z,41824
2017-07-11T07:27:46.975Z,41952
2017-07-11T07:28:47.316Z,41632
2017-07-11T07:29:46.987Z,39712
2017-07-11T07:30:47.333Z,38240
2017-07-11T07:31:47.310Z,38560
2017-07-11T07:32:46.712Z,40992
2017-07-11T07:33:47.331Z,44384
2017-07-11T07:34:46.397Z,27040
2017-07-11T07:35:47.095Z,45664
2017-07-11T07:36:46.421Z,44704
2017-07-11T07:37:47.039Z,39360
2017-07-11T07:38:47.374Z,50976
2017-07-11T07:39:47.071Z,53920
2017-07-11T07:40:47.409Z,60032
2017-07-11T07:41:46.761Z,60320
2017-07-11T07:42:47.099Z,56992
2017-07-11T07:43:47.408Z,38368
2017-07-11T07:44:47.448Z,48640
2017-07-11T07:45:47.434Z,45088
2017-07-11T07:46:47.141Z,42560
2017-07-11T07:47:47.437Z,44384
2017-07-11T07:48:47.468Z,44352
2017-07-11T07:49:47.157Z,46400
2017-07-11T07:50:47.492Z,46656
2017-07-11T07:51:47.567Z,48960
2017-07-11T07:52:47.216Z,51104
2017-07-11T07:53:47.205Z,21632
2017-07-11T07:54:47.211Z,44800
2017-07-11T07:55:47.550Z,50048
2017-07-11T07:56:47.555Z,33856
2017-07-11T07:57:47.585Z,64736
2017-07-11T07:58:47.570Z,67136
2017-07-11T07:59:47.292Z,46304
2017-07-11T08:00:47.597Z,51840
2017-07-11T08:01:47.621Z,51744
2017-07-11T08:02:47.639Z,46208
2017-07-11T08:03:47.318Z,47872
2017-07-11T08:04:47.044Z,51744
2017-07-11T08:05:47.359Z,48608
2017-07-11T08:06:47.378Z,52672
2017-07-11T08:07:47.380Z,51584
2017-07-11T08:08:47.413Z,54144
2017-07-11T08:09:47.419Z,59808
2017-07-11T08:10:47.439Z,60096
2017-07-11T08:11:47.437Z,59424
2017-07-11T08:12:47.769Z,57088
2017-07-11T08:13:47.805Z,58656
2017-07-11T08:14:47.865Z,58272
2017-07-11T08:15:47.523Z,57216
2017-07-11T08:16:47.528Z,66784
2017-07-11T08:17:47.556Z,75904
2017-07-11T08:18:47.608Z,87456
2017-07-11T08:19:47.905Z,91232
2017-07-11T08:20:47.267Z,90400
2017-07-11T08:21:47.969Z,89408
2017-07-11T08:22:47.943Z,86784
2017-07-11T08:23:47.638Z,85312
2017-07-11T08:24:47.653Z,78240
2017-07-11T08:25:47.985Z,60320
2017-07-11T08:26:47.386Z,83904
2017-07-11T08:27:48.102Z,82400
2017-07-11T08:28:48.038Z,77024
2017-07-11T08:29:47.760Z,76384
2017-07-11T08:30:47.449Z,68032
2017-07-11T08:31:47.799Z,67200
2017-07-11T08:32:48.130Z,77504
2017-07-11T08:33:48.146Z,76096
2017-07-11T08:34:48.155Z,76544
2017-07-11T08:35:47.871Z,85664
2017-07-11T08:36:48.194Z,85696
2017-07-11T08:37:48.229Z,85792
2017-07-11T08:38:48.223Z,84160
2017-07-11T08:39:48.493Z,76096
2017-07-11T08:40:47.923Z,68928
2017-07-11T08:41:47.312Z,76512
2017-07-11T08:42:47.982Z,79232
2017-07-11T08:43:48.318Z,85984
2017-07-11T08:44:48.334Z,91200
2017-07-11T08:45:48.406Z,77696
2017-07-11T08:46:48.364Z,65376
2017-07-11T08:47:48.375Z,57920
2017-07-11T08:48:48.416Z,64704
2017-07-11T08:50:48.418Z,45248
2017-07-11T08:51:47.825Z,46592
2017-07-11T08:52:52.048Z,37632
2017-07-11T08:53:49.339Z,28672
2017-07-11T08:54:48.498Z,45376
2017-07-11T08:55:48.192Z,47264
2017-07-11T08:56:48.523Z,40896
2017-07-11T08:57:48.288Z,28608
2017-07-11T08:58:48.234Z,56512
2017-07-11T08:59:48.256Z,55456
2017-07-11T09:00:48.254Z,47488
2017-07-11T09:01:48.284Z,38400
2017-07-11T09:02:48.616Z,35200
2017-07-11T09:03:48.622Z,31520
2017-07-11T09:04:48.640Z,30656
2017-07-11T09:05:48.316Z,28288
2017-07-11T09:06:50.731Z,28320
2017-07-11T09:07:48.342Z,29728
2017-07-11T09:08:48.363Z,31200
2017-07-11T09:09:48.676Z,33440
2017-07-11T09:10:48.695Z,34816
2017-07-11T09:11:48.717Z,33920
2017-07-11T09:12:48.734Z,31424
2017-07-11T09:13:48.735Z,30944
2017-07-11T09:14:48.099Z,32000
2017-07-11T09:15:48.746Z,32864
2017-07-11T09:16:48.443Z,33216
2017-07-11T09:17:48.491Z,33568
2017-07-11T09:18:48.478Z,33728
2017-07-11T09:19:48.777Z,33856
2017-07-11T09:20:48.508Z,33632
2017-07-11T09:21:48.807Z,33536
2017-07-11T09:22:48.492Z,32864
2017-07-11T09:23:48.529Z,32160
2017-07-11T09:24:48.520Z,31776
2017-07-11T09:25:48.537Z,32096
2017-07-11T09:26:48.554Z,32832
2017-07-11T09:27:48.585Z,33056
2017-07-11T09:28:48.580Z,32384
2017-07-11T09:29:48.574Z,30752
2017-07-11T09:30:48.579Z,29632
2017-07-11T09:31:48.594Z,29184
2017-07-11T09:32:48.607Z,29088
2017-07-11T09:33:48.617Z,29280
2017-07-11T09:34:48.639Z,29920
2017-07-11T09:35:48.296Z,30784
2017-07-11T09:36:48.653Z,31648
2017-07-11T09:37:48.324Z,32128
2017-07-11T09:38:48.352Z,32096
2017-07-11T09:39:48.975Z,32032
2017-07-11T09:40:49.009Z,31872
2017-07-11T09:41:48.374Z,31264
2017-07-11T09:42:48.695Z,30688
2017-07-11T09:43:48.710Z,29952
2017-07-11T09:44:48.709Z,29088
2017-07-11T09:45:49.054Z,27936
2017-07-11T09:46:49.049Z,26624
2017-07-11T09:47:48.740Z,25888
2017-07-11T09:48:48.838Z,26336
2017-07-11T09:49:48.446Z,27680
2017-07-11T09:50:48.785Z,29152
2017-07-11T09:51:48.444Z,30304
2017-07-11T09:52:48.801Z,30656
2017-07-11T09:53:49.103Z,31008
2017-07-11T09:54:48.498Z,30752
2017-07-11T09:55:49.115Z,30784
2017-07-11T09:56:48.519Z,31136
2017-07-11T09:57:49.153Z,30976
2017-07-11T09:58:48.522Z,30112
2017-07-11T09:59:48.846Z,28832
2017-07-11T10:00:49.160Z,27904
2017-07-11T10:01:49.180Z,27136
2017-07-11T10:02:49.191Z,27392
2017-07-11T10:03:49.207Z,27200
2017-07-11T10:04:48.892Z,27520
2017-07-11T10:05:49.213Z,27424
2017-07-11T10:06:49.224Z,27104
2017-07-11T10:07:48.925Z,26112
2017-07-11T10:08:49.244Z,25152
2017-07-11T10:09:49.247Z,24256
2017-07-11T10:10:48.923Z,23200
2017-07-11T10:11:51.665Z,21920
2017-07-11T10:12:49.276Z,21408
2017-07-11T10:13:48.657Z,21728
2017-07-11T10:14:48.648Z,23136
2017-07-11T10:15:49.315Z,24160
2017-07-11T10:16:48.667Z,24640
2017-07-11T10:17:49.317Z,25024
2017-07-11T10:18:49.007Z,25440
2017-07-11T10:19:49.337Z,25760
2017-07-11T10:20:48.693Z,26240
2017-07-11T10:21:49.042Z,26592
2017-07-11T10:22:49.031Z,27136
2017-07-11T10:23:49.354Z,28128
2017-07-11T10:24:49.060Z,28864
2017-07-11T10:25:48.750Z,29504
2017-07-11T10:26:49.073Z,30112
2017-07-11T10:27:49.391Z,30848
2017-07-11T10:28:49.073Z,31392
2017-07-11T10:29:49.391Z,32064
2017-07-11T10:30:49.424Z,32224
2017-07-11T10:31:49.095Z,33312
2017-07-11T10:32:49.140Z,33696
2017-07-11T10:33:49.427Z,34208
2017-07-11T10:34:49.441Z,34112
2017-07-11T10:35:49.126Z,33632
2017-07-11T10:36:49.149Z,32352
2017-07-11T10:37:48.828Z,30752
2017-07-11T10:38:49.169Z,29504
2017-07-11T10:39:49.164Z,28576
2017-07-11T10:40:49.183Z,27552
2017-07-11T10:41:49.195Z,26528
2017-07-11T10:42:49.507Z,25504
2017-07-11T10:43:49.199Z,24768
2017-07-11T10:44:49.526Z,24544
2017-07-11T10:45:49.205Z,24672
2017-07-11T10:46:49.558Z,25248
2017-07-11T10:47:49.239Z,25504
2017-07-11T10:48:49.557Z,25792
2017-07-11T10:49:49.244Z,25696
2017-07-11T10:50:49.581Z,25600
2017-07-11T10:51:49.592Z,25344
2017-07-11T10:52:49.574Z,24640
2017-07-11T10:53:48.978Z,24288
2017-07-11T10:54:49.279Z,24736
2017-07-11T10:55:49.305Z,24608
2017-07-11T10:56:49.627Z,23584
2017-07-11T10:57:49.648Z,22560
2017-07-11T10:58:49.334Z,20032
2017-07-11T10:59:49.642Z,18272
2017-07-11T11:00:49.637Z,17600
2017-07-11T11:01:49.350Z,17152
2017-07-11T11:02:49.673Z,16756
2017-07-11T11:03:49.672Z,16640
2017-07-11T11:04:49.683Z,17120
2017-07-11T11:05:49.710Z,17696
2017-07-11T11:06:49.686Z,18208
2017-07-11T11:07:49.399Z,18048
2017-07-11T11:08:49.719Z,17632
2017-07-11T11:09:49.419Z,17440
2017-07-11T11:10:49.721Z,17632
2017-07-11T11:11:49.419Z,18144
2017-07-11T11:12:50.044Z,18080
2017-07-11T11:13:49.766Z,17888
2017-07-11T11:14:49.767Z,17504
2017-07-11T11:15:49.760Z,16824
2017-07-11T11:16:49.462Z,16404
2017-07-11T11:17:49.456Z,16080
2017-07-11T11:18:49.165Z,15952
2017-07-11T11:19:49.792Z,15712
2017-07-11T11:20:49.499Z,15420
2017-07-11T11:21:49.484Z,15072
2017-07-11T11:22:49.501Z,14740
2017-07-11T11:23:49.185Z,14540
2017-07-11T11:24:49.576Z,14440
2017-07-11T11:25:49.827Z,14004
2017-07-11T11:26:49.855Z,13512
2017-07-11T11:27:49.851Z,13532
2017-07-11T11:28:49.856Z,14744
2017-07-11T11:29:49.854Z,16468
2017-07-11T11:30:49.880Z,17568
2017-07-11T11:31:49.254Z,17760
2017-07-11T11:32:49.895Z,18080
2017-07-11T11:33:49.894Z,18144
2017-07-11T11:34:49.586Z,17504
2017-07-11T11:35:49.596Z,17824
2017-07-11T11:36:49.922Z,17376
2017-07-11T11:37:49.921Z,16756
2017-07-11T11:38:49.932Z,18464
2017-07-11T11:39:49.908Z,21376
2017-07-11T11:40:49.628Z,22816
2017-07-11T11:41:49.930Z,22624
2017-07-11T11:42:49.958Z,21216
2017-07-11T11:43:49.962Z,21408
2017-07-11T11:44:49.986Z,23296
2017-07-11T11:45:49.971Z,20832
2017-07-11T11:46:49.958Z,17856
2017-07-11T11:47:49.980Z,17696
2017-07-11T11:48:50.001Z,19424
2017-07-11T11:49:49.689Z,17312
2017-07-11T11:50:49.683Z,15312
2017-07-11T11:51:50.018Z,15220
2017-07-11T11:52:49.689Z,15912
2017-07-11T11:53:49.719Z,16392
2017-07-11T11:54:49.723Z,17504
2017-07-11T11:55:49.402Z,17984
2017-07-11T11:56:50.043Z,17280
2017-07-11T11:57:49.727Z,16684
2017-07-11T11:58:50.072Z,16264
2017-07-11T11:59:49.742Z,15540
2017-07-11T12:00:50.080Z,14852
2017-07-11T12:01:49.427Z,14400
2017-07-11T12:02:49.130Z,14372
2017-07-11T12:03:49.449Z,14184
2017-07-11T12:04:49.786Z,14188
2017-07-11T12:05:49.475Z,15268
2017-07-11T12:06:50.083Z,16192
2017-07-11T12:07:50.114Z,16784
2017-07-11T12:08:50.117Z,17408
2017-07-11T12:09:49.498Z,17856
2017-07-11T12:10:49.797Z,18080
2017-07-11T12:11:50.144Z,18208
2017-07-11T12:12:49.827Z,18656
2017-07-11T12:13:50.168Z,18368
2017-07-11T12:14:49.515Z,19040
2017-07-11T12:15:50.164Z,20128
2017-07-11T12:16:50.150Z,21344
2017-07-11T12:17:50.189Z,21600
2017-07-11T12:18:50.185Z,20736
2017-07-11T12:19:49.551Z,21504
2017-07-11T12:20:49.554Z,22240
2017-07-11T12:21:49.886Z,24800
2017-07-11T12:22:50.189Z,24256
2017-07-11T12:23:50.195Z,20256
2017-07-11T12:24:50.205Z,18016
2017-07-11T12:25:49.929Z,16928
2017-07-11T12:26:49.590Z,18656
2017-07-11T12:27:50.250Z,18272
2017-07-11T12:28:49.930Z,15940
2017-07-11T12:29:49.311Z,14672
2017-07-11T12:30:50.308Z,13376
2017-07-11T12:31:49.639Z,13968
2017-07-11T12:32:49.634Z,14488
2017-07-11T12:33:50.288Z,17120
2017-07-11T12:34:50.295Z,16612
2017-07-11T12:35:49.979Z,16844
2017-07-11T12:36:49.979Z,14932
2017-07-11T12:37:50.301Z,12860
2017-07-11T12:38:50.321Z,12568
2017-07-11T12:39:50.330Z,13304
2017-07-11T12:40:50.327Z,12824
2017-07-11T12:41:50.321Z,13100
2017-07-11T12:42:50.350Z,14076
2017-07-11T12:43:50.339Z,14940
2017-07-11T12:44:50.038Z,16196
2017-07-11T12:45:50.333Z,18336
2017-07-11T12:46:49.737Z,18592
2017-07-11T12:47:50.366Z,17504
2017-07-11T12:48:50.057Z,17056
2017-07-11T12:49:49.752Z,16456
2017-07-11T12:50:50.393Z,16196
2017-07-11T12:51:50.387Z,15868
2017-07-11T12:52:50.442Z,14748
2017-07-11T12:53:50.059Z,14668
2017-07-11T12:54:50.420Z,14600
2017-07-11T12:55:50.418Z,14800
2017-07-11T12:56:49.797Z,14660
2017-07-11T12:57:50.110Z,13380
2017-07-11T12:58:50.130Z,11496
2017-07-11T12:59:49.803Z,10096
2017-07-11T13:00:50.136Z,9160
2017-07-11T13:01:50.432Z,8644
2017-07-11T13:02:50.472Z,8756
2017-07-11T13:03:50.476Z,8868
2017-07-11T13:04:50.484Z,8712
2017-07-11T13:05:50.146Z,8628
2017-07-11T13:06:50.153Z,8556
2017-07-11T13:07:50.172Z,8468
2017-07-11T13:08:50.491Z,8136
2017-07-11T13:09:50.506Z,8112
2017-07-11T13:10:50.181Z,8116
2017-07-11T13:11:50.208Z,8312
2017-07-11T13:12:50.543Z,10160
2017-07-11T13:13:50.518Z,10668
2017-07-11T13:14:50.539Z,10832
2017-07-11T13:15:50.213Z,10208
2017-07-11T13:16:50.227Z,9264
2017-07-11T13:17:49.920Z,8680
2017-07-11T13:18:50.563Z,8648
2017-07-11T13:19:50.561Z,8776
2017-07-11T13:20:50.632Z,9408